الصفحة الرئيسية
METAR-TAF:

METAR-TAF

مطار :

مطار تورونتو بيرسون الدولي

تورونتو, أونتاريو, كندا

دائرة عرض: 43-40N, خط طول: 079-38W, ارتفاع: 173 متر

مراقبة الطقس الحالي

تاريخ ووقت الإصدار 40 دقيقة قبل الساعة 04:00UTC
ريح 7 عقدة من الغرب
درجة الحرارة -2°درجة مئوية
الرطوبة 69%
ضغط 1023 hPa
الرؤية: 24.1 كم
غيوم متفرقة على ارتفاع 3500 قدم
غيوم مفككة على ارتفاع 22000 قدم

METAR: CYYZ 220400Z 27007KT 15SM SCT035 BKN220 M02/M07 A3021 RMK SC3CI2 SLP240

زمن: 23:40 (04:40 UTC)

توقعات

تاريخ ووقت الإصدار 2ساعات و 2 دقيقة قبل الساعة 02:38UTC
التوقعات صالحة من22 الساعة 03 UTC إلى 23 الساعة 06 UTC
ريح 8 عقدة من الغرب
الرؤية: 10 كم
غيوم مفككة على ارتفاع 24000 قدم
أصبح
من 22 الساعة 11 UTC إلى 22 الساعة 13 UTC
ريح 8 عقدة من الغرب/الشمال الغربي
من 22 الساعة 1800 UTC
ريح 3 عقدةمن اتجاهات متغيرة
الرؤية: 10 كم
غيوم قليلة على ارتفاع 2500 قدم
من 23 الساعة 0200 UTC
ريح 6 عقدة من الشمال الغربي
الرؤية: 10 كم
سماء صافية

TAF: CYYZ 220238Z 2203/2306 28008KT P6SM BKN240 BECMG 2211/2213 29008KT FM221800 VRB03KT P6SM FEW025 FM230200 32006KT P6SM SKC RMK NXT FCST BY 220600Z

أرصاد الطقس والتوقعات من أكثر من 4000 مطار (تقارير الطقس للمطار METAR والتنبؤ بالطقس بالمطارTAF).

المحطات المتاحة هي النقط الصفراء والحمراء على الخريطة.

حرك المؤشر فوق النقطة لمعرفة اسم المحطة.

ثم انقر لمعرفة أرصاد وتوقعات الطقس.

لتغيير الخارطة: اضغط على الأزرار الخضراء مع رمز الصليب الأسود للتكبير. على الزر الأخضر مع شرطة للتصغير، أو على الأسهم الخضراء للخرائط المجاورة.


METAR-TAF: